TNCMTKPK

Guest
Details From TNCM - St Maarten - Princess Juliana Intl
To TKPK - St. Kitts/Bradshaw Intl
Flight Number -
Tags generated
Created
Modified
Stats Distance 49 nm / 91 km
Max Altitude 2,400 ft / 732 m
Waypoints 3
Social Downloads 0
Likes 0
Share VATSIM

Download

Looking for another format? Having issues loading an existing format? Contact us
Advertisement - Login to hide

Notes

Basic altitude profile: - Ascent Rate: 2300ft/min - Ascent Speed: 250kts - Cruise Altitude: 11000ft - Cruise Speed: 300kts - Descent Rate: 1500ft/min - Descent Speed: 230kts Options: - Use NATs: yes - Use PACOTS: yes - Use low airways: yes - Use high airways: yes

Route

TNCM TIKAL TKPK

ID Type Via Altitude Latitude Longitude Leg Dist Tot Dist Heading (true) Name
O TNCM APT - 0 ft / 0 m 18.04089˚ -63.10897˚ - 0 nm - St Maarten - Princess Juliana Intl
TIKAL FIX - 2,400 ft / 732 m 17.47381˚ -62.81800˚ 37 nm 37 nm 154° / 154° -
O TKPK APT - 0 ft / 0 m 17.31119˚ -62.71867˚ 11 nm 49 nm 150° / 150° St. Kitts/Bradshaw Intl

Altitude Profile

Advertisement - Login to hide

TNCM

Details ICAO TNCM (SXM)
Name Princess Juliana Int'l
Region Caribbean Netherlands, Aruba, Curaçao, Sint Maarten
Timezone Unknown (UTC+0.0)
Stats Elevation 12 ft / 4 m (AMSL)
Location 18.040941° -63.108949°
Runways 1
Magnetic Variation 14.343° W

METAR

TNCM 150900Z 07010KT 040V100 9999 -SHRA SCT016 28/24 Q1014 A2997

Decode

TAF

TAF TNCM 150527Z 1506/1606 07013KT P6SM VCSH FEW020 FM151430 10012KT P6SM FEW022 FM152100 08009KT P6SM VCSH SCT024

Decode

Departure Runways

ID Width Length Bearing (true/mag) Surface Threshold Overrun Markings Lighting
10 148 ft / 45 m 7,553 ft / 2,302 m 81.44° / 95.78° ASPHALT 331 ft / 101 m 164 ft / 50 m PREC-APP EDGE THRESHOLD REIL-OMNI
28 148 ft / 45 m 7,553 ft / 2,302 m 261.45° / 275.79° ASPHALT 0 ft / 0 m 200 ft / 61 m APP EDGE THRESHOLD

TKPK

Details ICAO TKPK (SKB)
Name St. Kitts/Bradshaw Intl
Region Saint Kitts and Nevis
Timezone America/St_Kitts (UTC-4.0)
Stats Elevation 169 ft / 52 m (AMSL)
Location 17.311195° -62.718667°
Runways 1
Magnetic Variation 14.470° W

METAR

Not found

TAF

TAF TKPK 150527Z 1506/1606 05012KT P6SM FEW017 FM150800 05006KT P6SM VCSH SCT018 SCT035 FM151430 07012KT P6SM FEW022 FM152100 10010KT P6SM VCSH SCT022

Decode

Destination Runways

ID Width Length Bearing (true/mag) Surface Threshold Overrun Markings Lighting
07 148 ft / 45 m 7,620 ft / 2,323 m 56.95° / 71.42° ASPHALT 200 ft / 61 m 0 ft / 0 m APP EDGE THRESHOLD
25 148 ft / 45 m 7,620 ft / 2,323 m 236.95° / 251.42° ASPHALT 0 ft / 0 m 0 ft / 0 m APP EDGE THRESHOLD REIL-OMNI

Popular Alternatives